sensor_id;sensor_type;location;lat;lon;timestamp;pressure;altitude;pressure_sealevel;temperature;humidity
23261;BME280;11799;47.740;-3.390;2023-11-21T00:00:17;101752.78;;;10.98;100.00
23261;BME280;11799;47.740;-3.390;2023-11-21T00:02:44;101759.84;;;10.98;100.00
23261;BME280;11799;47.740;-3.390;2023-11-21T00:05:12;101762.94;;;10.91;100.00
23261;BME280;11799;47.740;-3.390;2023-11-21T00:07:40;101758.78;;;10.87;100.00
23261;BME280;11799;47.740;-3.390;2023-11-21T00:10:06;101760.78;;;10.84;100.00
23261;BME280;11799;47.740;-3.390;2023-11-21T00:12:34;101762.75;;;10.80;100.00
23261;BME280;11799;47.740;-3.390;2023-11-21T00:14:59;101750.03;;;10.73;100.00
23261;BME280;11799;47.740;-3.390;2023-11-21T00:17:25;101764.25;;;10.84;100.00
23261;BME280;11799;47.740;-3.390;2023-11-21T00:19:50;101772.19;;;10.84;100.00
23261;BME280;11799;47.740;-3.390;2023-11-21T00:22:19;101769.75;;;10.81;100.00
23261;BME280;11799;47.740;-3.390;2023-11-21T00:24:46;101768.88;;;10.81;100.00
23261;BME280;11799;47.740;-3.390;2023-11-21T00:27:11;101771.72;;;10.78;100.00
23261;BME280;11799;47.740;-3.390;2023-11-21T00:29:37;101768.78;;;10.82;100.00
23261;BME280;11799;47.740;-3.390;2023-11-21T00:32:05;101776.72;;;10.82;100.00
23261;BME280;11799;47.740;-3.390;2023-11-21T00:34:31;101782.84;;;10.83;100.00
23261;BME280;11799;47.740;-3.390;2023-11-21T00:36:56;101791.72;;;10.82;100.00
23261;BME280;11799;47.740;-3.390;2023-11-21T00:39:22;101789.09;;;10.82;100.00
23261;BME280;11799;47.740;-3.390;2023-11-21T00:41:48;101792.78;;;10.79;100.00
23261;BME280;11799;47.740;-3.390;2023-11-21T00:44:13;101780.78;;;10.74;100.00
23261;BME280;11799;47.740;-3.390;2023-11-21T00:46:39;101787.47;;;10.79;100.00
23261;BME280;11799;47.740;-3.390;2023-11-21T00:49:05;101791.63;;;10.83;100.00
23261;BME280;11799;47.740;-3.390;2023-11-21T00:51:30;101797.00;;;10.82;100.00
23261;BME280;11799;47.740;-3.390;2023-11-21T00:53:56;101796.25;;;10.80;100.00
23261;BME280;11799;47.740;-3.390;2023-11-21T00:56:22;101786.72;;;10.77;100.00
23261;BME280;11799;47.740;-3.390;2023-11-21T00:58:47;101780.97;;;10.71;100.00
23261;BME280;11799;47.740;-3.390;2023-11-21T01:01:18;101771.47;;;10.68;100.00
23261;BME280;11799;47.740;-3.390;2023-11-21T01:03:46;101767.88;;;10.69;100.00
23261;BME280;11799;47.740;-3.390;2023-11-21T01:06:12;101774.19;;;10.81;100.00
23261;BME280;11799;47.740;-3.390;2023-11-21T01:08:38;101773.41;;;10.79;100.00
23261;BME280;11799;47.740;-3.390;2023-11-21T01:11:04;101779.84;;;10.75;100.00
23261;BME280;11799;47.740;-3.390;2023-11-21T01:13:30;101773.81;;;10.73;100.00
23261;BME280;11799;47.740;-3.390;2023-11-21T01:15:56;101782.69;;;10.72;100.00
23261;BME280;11799;47.740;-3.390;2023-11-21T01:18:22;101785.50;;;10.69;100.00
23261;BME280;11799;47.740;-3.390;2023-11-21T01:20:47;101791.56;;;10.71;100.00
23261;BME280;11799;47.740;-3.390;2023-11-21T01:23:13;101788.44;;;10.64;100.00
23261;BME280;11799;47.740;-3.390;2023-11-21T01:25:39;101797.13;;;10.66;100.00
23261;BME280;11799;47.740;-3.390;2023-11-21T01:28:04;101786.84;;;10.62;100.00
23261;BME280;11799;47.740;-3.390;2023-11-21T01:30:30;101789.38;;;10.63;100.00
23261;BME280;11799;47.740;-3.390;2023-11-21T01:32:58;101789.66;;;10.58;100.00
23261;BME280;11799;47.740;-3.390;2023-11-21T01:35:24;101790.34;;;10.62;100.00
23261;BME280;11799;47.740;-3.390;2023-11-21T01:37:49;101798.16;;;10.64;100.00
23261;BME280;11799;47.740;-3.390;2023-11-21T01:40:15;101793.16;;;10.59;100.00
23261;BME280;11799;47.740;-3.390;2023-11-21T01:42:41;101797.59;;;10.58;100.00
23261;BME280;11799;47.740;-3.390;2023-11-21T01:45:10;101794.19;;;10.56;100.00
23261;BME280;11799;47.740;-3.390;2023-11-21T01:47:37;101800.25;;;10.58;100.00
23261;BME280;11799;47.740;-3.390;2023-11-21T01:50:03;101801.94;;;10.59;100.00
23261;BME280;11799;47.740;-3.390;2023-11-21T01:52:32;101807.13;;;10.61;100.00
23261;BME280;11799;47.740;-3.390;2023-11-21T01:54:59;101810.81;;;10.58;100.00
23261;BME280;11799;47.740;-3.390;2023-11-21T01:57:25;101810.06;;;10.56;100.00
23261;BME280;11799;47.740;-3.390;2023-11-21T01:59:51;101811.75;;;10.57;100.00
23261;BME280;11799;47.740;-3.390;2023-11-21T02:02:19;101809.38;;;10.53;100.00
23261;BME280;11799;47.740;-3.390;2023-11-21T02:04:44;101814.47;;;10.56;100.00
23261;BME280;11799;47.740;-3.390;2023-11-21T02:07:10;101807.31;;;10.58;100.00
23261;BME280;11799;47.740;-3.390;2023-11-21T02:09:36;101804.28;;;10.50;100.00
23261;BME280;11799;47.740;-3.390;2023-11-21T02:12:04;101817.31;;;10.53;100.00
23261;BME280;11799;47.740;-3.390;2023-11-21T02:14:30;101818.16;;;10.53;100.00
23261;BME280;11799;47.740;-3.390;2023-11-21T02:16:57;101819.00;;;10.54;100.00
23261;BME280;11799;47.740;-3.390;2023-11-21T02:19:23;101824.47;;;10.51;100.00
23261;BME280;11799;47.740;-3.390;2023-11-21T02:21:54;101826.84;;;10.55;100.00
23261;BME280;11799;47.740;-3.390;2023-11-21T02:24:21;101809.84;;;10.45;100.00
23261;BME280;11799;47.740;-3.390;2023-11-21T02:26:48;101831.94;;;10.58;100.00
23261;BME280;11799;47.740;-3.390;2023-11-21T02:29:14;101829.84;;;10.64;100.00
23261;BME280;11799;47.740;-3.390;2023-11-21T02:31:42;101815.53;;;10.53;100.00
23261;BME280;11799;47.740;-3.390;2023-11-21T02:34:17;101836.00;;;10.64;100.00
23261;BME280;11799;47.740;-3.390;2023-11-21T02:36:43;101829.19;;;10.60;100.00
23261;BME280;11799;47.740;-3.390;2023-11-21T02:39:11;101830.81;;;10.63;100.00
23261;BME280;11799;47.740;-3.390;2023-11-21T02:41:39;101827.13;;;10.65;100.00
23261;BME280;11799;47.740;-3.390;2023-11-21T02:44:06;101816.56;;;10.65;100.00
23261;BME280;11799;47.740;-3.390;2023-11-21T02:46:35;101823.81;;;10.62;100.00
23261;BME280;11799;47.740;-3.390;2023-11-21T02:49:05;101829.19;;;10.60;100.00
23261;BME280;11799;47.740;-3.390;2023-11-21T02:51:36;101825.91;;;10.56;100.00
23261;BME280;11799;47.740;-3.390;2023-11-21T02:54:03;101832.31;;;10.52;100.00
23261;BME280;11799;47.740;-3.390;2023-11-21T02:56:33;101842.03;;;10.52;100.00
23261;BME280;11799;47.740;-3.390;2023-11-21T02:59:00;101825.53;;;10.48;100.00
23261;BME280;11799;47.740;-3.390;2023-11-21T03:01:26;101829.59;;;10.40;100.00
23261;BME280;11799;47.740;-3.390;2023-11-21T03:03:53;101838.91;;;10.45;100.00
23261;BME280;11799;47.740;-3.390;2023-11-21T03:06:19;101829.13;;;10.33;100.00
23261;BME280;11799;47.740;-3.390;2023-11-21T03:08:46;101845.53;;;10.38;100.00
23261;BME280;11799;47.740;-3.390;2023-11-21T03:11:12;101843.25;;;10.46;100.00
23261;BME280;11799;47.740;-3.390;2023-11-21T03:13:41;101858.06;;;10.49;100.00
23261;BME280;11799;47.740;-3.390;2023-11-21T03:16:09;101854.31;;;10.39;100.00
23261;BME280;11799;47.740;-3.390;2023-11-21T03:18:34;101862.41;;;10.36;100.00
23261;BME280;11799;47.740;-3.390;2023-11-21T03:21:00;101860.22;;;10.28;100.00
23261;BME280;11799;47.740;-3.390;2023-11-21T03:23:25;101868.25;;;10.27;100.00
23261;BME280;11799;47.740;-3.390;2023-11-21T03:25:51;101863.72;;;10.29;100.00
23261;BME280;11799;47.740;-3.390;2023-11-21T03:28:16;101865.50;;;10.28;100.00
23261;BME280;11799;47.740;-3.390;2023-11-21T03:30:42;101858.72;;;10.24;100.00
23261;BME280;11799;47.740;-3.390;2023-11-21T03:33:07;101852.50;;;10.25;100.00
23261;BME280;11799;47.740;-3.390;2023-11-21T03:35:33;101857.69;;;10.27;100.00
23261;BME280;11799;47.740;-3.390;2023-11-21T03:37:58;101855.22;;;10.23;100.00
23261;BME280;11799;47.740;-3.390;2023-11-21T03:40:24;101855.31;;;10.22;100.00
23261;BME280;11799;47.740;-3.390;2023-11-21T03:42:49;101853.63;;;10.21;100.00
23261;BME280;11799;47.740;-3.390;2023-11-21T03:45:15;101851.13;;;10.18;100.00
23261;BME280;11799;47.740;-3.390;2023-11-21T03:47:42;101844.91;;;10.19;100.00
23261;BME280;11799;47.740;-3.390;2023-11-21T03:50:08;101836.50;;;10.12;100.00
23261;BME280;11799;47.740;-3.390;2023-11-21T03:52:35;101863.31;;;10.20;100.00
23261;BME280;11799;47.740;-3.390;2023-11-21T03:55:01;101846.31;;;10.10;100.00
23261;BME280;11799;47.740;-3.390;2023-11-21T03:57:27;101853.00;;;10.16;100.00
23261;BME280;11799;47.740;-3.390;2023-11-21T03:59:53;101860.69;;;10.20;100.00
23261;BME280;11799;47.740;-3.390;2023-11-21T04:02:19;101857.34;;;10.17;100.00
23261;BME280;11799;47.740;-3.390;2023-11-21T04:04:44;101834.31;;;10.05;100.00
23261;BME280;11799;47.740;-3.390;2023-11-21T04:07:10;101853.09;;;10.14;100.00
23261;BME280;11799;47.740;-3.390;2023-11-21T04:09:36;101842.44;;;10.16;100.00
23261;BME280;11799;47.740;-3.390;2023-11-21T04:12:02;101851.41;;;10.13;100.00
23261;BME280;11799;47.740;-3.390;2023-11-21T04:14:28;101852.34;;;10.12;100.00
23261;BME280;11799;47.740;-3.390;2023-11-21T04:16:53;101862.91;;;10.12;100.00
23261;BME280;11799;47.740;-3.390;2023-11-21T04:19:19;101861.94;;;10.13;100.00
23261;BME280;11799;47.740;-3.390;2023-11-21T04:21:44;101855.06;;;10.11;100.00
23261;BME280;11799;47.740;-3.390;2023-11-21T04:24:11;101859.59;;;10.09;100.00
23261;BME280;11799;47.740;-3.390;2023-11-21T04:26:36;101865.31;;;10.01;100.00
23261;BME280;11799;47.740;-3.390;2023-11-21T04:29:02;101872.19;;;10.04;100.00
23261;BME280;11799;47.740;-3.390;2023-11-21T04:31:28;101877.56;;;10.02;100.00
23261;BME280;11799;47.740;-3.390;2023-11-21T04:33:53;101868.31;;;9.95;100.00
23261;BME280;11799;47.740;-3.390;2023-11-21T04:36:19;101874.94;;;10.02;100.00
23261;BME280;11799;47.740;-3.390;2023-11-21T04:38:45;101883.97;;;9.98;100.00
23261;BME280;11799;47.740;-3.390;2023-11-21T04:41:11;101886.59;;;9.98;100.00
23261;BME280;11799;47.740;-3.390;2023-11-21T04:43:37;101893.75;;;9.96;100.00
23261;BME280;11799;47.740;-3.390;2023-11-21T04:46:03;101898.28;;;9.94;100.00
23261;BME280;11799;47.740;-3.390;2023-11-21T04:48:28;101901.84;;;9.93;100.00
23261;BME280;11799;47.740;-3.390;2023-11-21T04:50:54;101901.94;;;9.91;100.00
23261;BME280;11799;47.740;-3.390;2023-11-21T04:53:19;101901.34;;;9.86;100.00
23261;BME280;11799;47.740;-3.390;2023-11-21T04:55:45;101902.97;;;9.89;100.00
23261;BME280;11799;47.740;-3.390;2023-11-21T04:58:11;101905.50;;;9.90;100.00
23261;BME280;11799;47.740;-3.390;2023-11-21T05:00:37;101913.34;;;9.92;100.00
23261;BME280;11799;47.740;-3.390;2023-11-21T05:03:03;101915.97;;;9.92;100.00
23261;BME280;11799;47.740;-3.390;2023-11-21T05:05:30;101916.06;;;9.90;100.00
23261;BME280;11799;47.740;-3.390;2023-11-21T05:07:55;101916.06;;;9.90;100.00
23261;BME280;11799;47.740;-3.390;2023-11-21T05:10:21;101923.03;;;9.91;100.00
23261;BME280;11799;47.740;-3.390;2023-11-21T05:12:47;101913.44;;;9.90;100.00
23261;BME280;11799;47.740;-3.390;2023-11-21T05:15:15;101922.78;;;9.96;100.00
23261;BME280;11799;47.740;-3.390;2023-11-21T05:17:42;101931.63;;;9.95;100.00
23261;BME280;11799;47.740;-3.390;2023-11-21T05:20:13;101933.94;;;10.01;100.00
23261;BME280;11799;47.740;-3.390;2023-11-21T05:22:42;101930.44;;;10.01;100.00
23261;BME280;11799;47.740;-3.390;2023-11-21T05:25:08;101936.47;;;10.03;100.00
23261;BME280;11799;47.740;-3.390;2023-11-21T05:27:34;101937.59;;;9.99;100.00
23261;BME280;11799;47.740;-3.390;2023-11-21T05:30:01;101941.94;;;10.00;100.00
23261;BME280;11799;47.740;-3.390;2023-11-21T05:32:27;101941.94;;;10.00;100.00
23261;BME280;11799;47.740;-3.390;2023-11-21T05:34:53;101932.13;;;10.02;100.00
23261;BME280;11799;47.740;-3.390;2023-11-21T05:37:19;101932.91;;;10.04;100.00
23261;BME280;11799;47.740;-3.390;2023-11-21T05:39:44;101932.06;;;10.03;100.00
23261;BME280;11799;47.740;-3.390;2023-11-21T05:42:09;101936.22;;;10.07;100.00
23261;BME280;11799;47.740;-3.390;2023-11-21T05:44:37;101940.56;;;10.08;100.00
23261;BME280;11799;47.740;-3.390;2023-11-21T05:47:02;101936.03;;;10.10;100.00
23261;BME280;11799;47.740;-3.390;2023-11-21T05:49:29;101942.94;;;10.13;100.00
23261;BME280;11799;47.740;-3.390;2023-11-21T05:51:55;101941.72;;;10.18;100.00
23261;BME280;11799;47.740;-3.390;2023-11-21T05:54:21;101942.56;;;10.19;100.00
23261;BME280;11799;47.740;-3.390;2023-11-21T05:56:47;101945.22;;;10.19;100.00
23261;BME280;11799;47.740;-3.390;2023-11-21T05:59:14;101946.09;;;10.19;100.00
23261;BME280;11799;47.740;-3.390;2023-11-21T06:01:40;101940.88;;;10.18;100.00
23261;BME280;11799;47.740;-3.390;2023-11-21T06:04:05;101936.44;;;10.18;100.00
23261;BME280;11799;47.740;-3.390;2023-11-21T06:06:33;101939.03;;;10.20;100.00
23261;BME280;11799;47.740;-3.390;2023-11-21T06:08:58;101933.75;;;10.20;100.00
23261;BME280;11799;47.740;-3.390;2023-11-21T06:11:24;101928.13;;;10.10;100.00
23261;BME280;11799;47.740;-3.390;2023-11-21T06:13:50;101941.06;;;10.15;100.00
23261;BME280;11799;47.740;-3.390;2023-11-21T06:16:15;101950.59;;;10.17;100.00
23261;BME280;11799;47.740;-3.390;2023-11-21T06:18:45;101943.38;;;10.21;100.00
23261;BME280;11799;47.740;-3.390;2023-11-21T06:21:11;101951.38;;;10.19;100.00
23261;BME280;11799;47.740;-3.390;2023-11-21T06:23:37;101947.72;;;10.22;100.00
23261;BME280;11799;47.740;-3.390;2023-11-21T06:26:03;101947.78;;;10.20;100.00
23261;BME280;11799;47.740;-3.390;2023-11-21T06:28:29;101944.53;;;10.15;100.00
23261;BME280;11799;47.740;-3.390;2023-11-21T06:30:56;101954.06;;;10.18;100.00
23261;BME280;11799;47.740;-3.390;2023-11-21T06:33:23;101961.13;;;10.17;100.00
23261;BME280;11799;47.740;-3.390;2023-11-21T06:35:49;101965.56;;;10.17;100.00
23261;BME280;11799;47.740;-3.390;2023-11-21T06:38:15;101971.19;;;10.27;100.00
23261;BME280;11799;47.740;-3.390;2023-11-21T06:40:40;101975.53;;;10.28;100.00
23261;BME280;11799;47.740;-3.390;2023-11-21T06:43:06;101968.38;;;10.30;100.00
23261;BME280;11799;47.740;-3.390;2023-11-21T06:45:33;101969.31;;;10.29;100.00
23261;BME280;11799;47.740;-3.390;2023-11-21T06:47:59;101964.22;;;10.25;100.00
23261;BME280;11799;47.740;-3.390;2023-11-21T06:50:25;101965.25;;;10.23;100.00
23261;BME280;11799;47.740;-3.390;2023-11-21T06:52:51;101972.31;;;10.22;100.00
23261;BME280;11799;47.740;-3.390;2023-11-21T06:55:16;101975.91;;;10.21;100.00
23261;BME280;11799;47.740;-3.390;2023-11-21T06:57:42;101960.47;;;10.14;100.00
23261;BME280;11799;47.740;-3.390;2023-11-21T07:00:08;101977.78;;;10.19;100.00
23261;BME280;11799;47.740;-3.390;2023-11-21T07:02:34;101975.19;;;10.18;100.00
23261;BME280;11799;47.740;-3.390;2023-11-21T07:05:00;101976.38;;;10.12;100.00
23261;BME280;11799;47.740;-3.390;2023-11-21T07:07:27;101978.09;;;10.13;100.00
23261;BME280;11799;47.740;-3.390;2023-11-21T07:09:53;101979.88;;;10.13;100.00
23261;BME280;11799;47.740;-3.390;2023-11-21T07:12:18;101985.41;;;10.08;100.00
23261;BME280;11799;47.740;-3.390;2023-11-21T07:14:44;101986.44;;;10.06;100.00
23261;BME280;11799;47.740;-3.390;2023-11-21T07:17:13;101998.13;;;10.02;100.00
23261;BME280;11799;47.740;-3.390;2023-11-21T07:19:39;101978.47;;;9.91;100.00
23261;BME280;11799;47.740;-3.390;2023-11-21T07:22:04;101990.28;;;10.00;100.00
23261;BME280;11799;47.740;-3.390;2023-11-21T07:24:31;101996.66;;;9.96;100.00
23261;BME280;11799;47.740;-3.390;2023-11-21T07:26:57;102002.13;;;9.93;100.00
23261;BME280;11799;47.740;-3.390;2023-11-21T07:29:23;102001.94;;;9.96;100.00
23261;BME280;11799;47.740;-3.390;2023-11-21T07:31:51;102013.34;;;9.97;100.00
23261;BME280;11799;47.740;-3.390;2023-11-21T07:34:17;102021.53;;;9.92;100.00
23261;BME280;11799;47.740;-3.390;2023-11-21T07:36:42;102025.97;;;9.91;100.00
23261;BME280;11799;47.740;-3.390;2023-11-21T07:39:08;102030.38;;;9.91;100.00
23261;BME280;11799;47.740;-3.390;2023-11-21T07:41:34;102031.50;;;9.87;100.00
23261;BME280;11799;47.740;-3.390;2023-11-21T07:43:59;102038.28;;;9.91;100.00
23261;BME280;11799;47.740;-3.390;2023-11-21T07:46:26;102044.69;;;9.87;100.00
23261;BME280;11799;47.740;-3.390;2023-11-21T07:48:52;102053.97;;;9.94;100.00
23261;BME280;11799;47.740;-3.390;2023-11-21T07:51:18;102052.16;;;9.94;100.00
23261;BME280;11799;47.740;-3.390;2023-11-21T07:53:44;102055.50;;;9.98;100.00
23261;BME280;11799;47.740;-3.390;2023-11-21T07:56:10;102058.72;;;10.03;100.00
23261;BME280;11799;47.740;-3.390;2023-11-21T07:58:36;102053.53;;;10.02;100.00
23261;BME280;11799;47.740;-3.390;2023-11-21T08:01:02;102063.25;;;10.01;100.00
23261;BME280;11799;47.740;-3.390;2023-11-21T08:03:29;102061.38;;;10.03;100.00
23261;BME280;11799;47.740;-3.390;2023-11-21T08:05:58;102061.38;;;10.03;100.00
23261;BME280;11799;47.740;-3.390;2023-11-21T08:08:24;102069.53;;;9.99;100.00
23261;BME280;11799;47.740;-3.390;2023-11-21T08:10:50;102071.66;;;10.08;100.00
23261;BME280;11799;47.740;-3.390;2023-11-21T08:13:26;102058.03;;;10.15;100.00
23261;BME280;11799;47.740;-3.390;2023-11-21T08:15:55;102066.66;;;10.35;100.00
23261;BME280;11799;47.740;-3.390;2023-11-21T08:18:22;102066.28;;;10.41;100.00
23261;BME280;11799;47.740;-3.390;2023-11-21T08:20:48;102067.13;;;10.41;100.00
23261;BME280;11799;47.740;-3.390;2023-11-21T08:23:16;102061.97;;;10.40;100.00
23261;BME280;11799;47.740;-3.390;2023-11-21T08:25:43;102078.19;;;10.64;100.00
23261;BME280;11799;47.740;-3.390;2023-11-21T08:28:09;102091.25;;;10.81;100.00
23261;BME280;11799;47.740;-3.390;2023-11-21T08:30:35;102093.38;;;11.04;100.00
23261;BME280;11799;47.740;-3.390;2023-11-21T08:33:01;102091.25;;;11.25;100.00
23261;BME280;11799;47.740;-3.390;2023-11-21T08:35:28;102095.50;;;11.42;100.00
23261;BME280;11799;47.740;-3.390;2023-11-21T08:37:54;102096.91;;;11.62;100.00
23261;BME280;11799;47.740;-3.390;2023-11-21T08:40:20;102090.00;;;11.73;100.00
23261;BME280;11799;47.740;-3.390;2023-11-21T08:42:49;102071.38;;;11.75;100.00
23261;BME280;11799;47.740;-3.390;2023-11-21T08:45:17;102089.25;;;12.00;100.00
23261;BME280;11799;47.740;-3.390;2023-11-21T08:47:43;102077.25;;;11.94;100.00
23261;BME280;11799;47.740;-3.390;2023-11-21T08:50:12;102091.72;;;12.03;100.00
23261;BME280;11799;47.740;-3.390;2023-11-21T08:52:39;102090.31;;;11.97;100.00
23261;BME280;11799;47.740;-3.390;2023-11-21T08:55:06;102083.31;;;11.96;100.00
23261;BME280;11799;47.740;-3.390;2023-11-21T08:57:38;102081.41;;;11.98;100.00
23261;BME280;11799;47.740;-3.390;2023-11-21T09:00:05;102064.50;;;11.86;100.00
23261;BME280;11799;47.740;-3.390;2023-11-21T09:02:35;102085.09;;;11.96;100.00
23261;BME280;11799;47.740;-3.390;2023-11-21T09:05:03;102080.66;;;11.96;100.00
23261;BME280;11799;47.740;-3.390;2023-11-21T09:07:29;102083.22;;;11.98;100.00
23261;BME280;11799;47.740;-3.390;2023-11-21T09:09:55;102077.91;;;11.98;100.00
23261;BME280;11799;47.740;-3.390;2023-11-21T09:12:21;102076.03;;;12.00;100.00
23261;BME280;11799;47.740;-3.390;2023-11-21T09:14:47;102072.31;;;12.02;100.00
23261;BME280;11799;47.740;-3.390;2023-11-21T09:17:13;102075.81;;;12.03;100.00
23261;BME280;11799;47.740;-3.390;2023-11-21T09:19:42;102078.47;;;12.03;100.00
23261;BME280;11799;47.740;-3.390;2023-11-21T09:22:15;102087.38;;;12.02;100.00
23261;BME280;11799;47.740;-3.390;2023-11-21T09:24:41;102100.41;;;12.05;100.00
23261;BME280;11799;47.740;-3.390;2023-11-21T09:27:08;102097.66;;;12.06;100.00
23261;BME280;11799;47.740;-3.390;2023-11-21T09:29:35;102110.72;;;12.09;100.00
23261;BME280;11799;47.740;-3.390;2023-11-21T09:32:00;102121.09;;;12.12;100.00
23261;BME280;11799;47.740;-3.390;2023-11-21T09:34:27;102121.63;;;12.17;100.00
23261;BME280;11799;47.740;-3.390;2023-11-21T09:36:52;102134.13;;;12.15;100.00
23261;BME280;11799;47.740;-3.390;2023-11-21T09:39:19;102132.97;;;12.19;100.00
23261;BME280;11799;47.740;-3.390;2023-11-21T09:41:51;102129.00;;;12.27;100.00
23261;BME280;11799;47.740;-3.390;2023-11-21T09:44:22;102122.75;;;12.28;100.00
23261;BME280;11799;47.740;-3.390;2023-11-21T09:46:55;102123.22;;;12.20;100.00
23261;BME280;11799;47.740;-3.390;2023-11-21T09:49:26;102127.88;;;12.16;100.00
23261;BME280;11799;47.740;-3.390;2023-11-21T09:51:55;102130.13;;;12.22;100.00
23261;BME280;11799;47.740;-3.390;2023-11-21T09:54:21;102142.03;;;12.30;100.00
23261;BME280;11799;47.740;-3.390;2023-11-21T09:56:48;102136.94;;;12.27;100.00
23261;BME280;11799;47.740;-3.390;2023-11-21T09:59:15;102123.69;;;12.27;100.00
23261;BME280;11799;47.740;-3.390;2023-11-21T10:01:42;102140.25;;;12.30;100.00
23261;BME280;11799;47.740;-3.390;2023-11-21T10:04:08;102136.53;;;12.33;100.00
23261;BME280;11799;47.740;-3.390;2023-11-21T10:06:40;102144.50;;;12.33;100.00
23261;BME280;11799;47.740;-3.390;2023-11-21T10:09:10;102142.41;;;12.38;100.00
23261;BME280;11799;47.740;-3.390;2023-11-21T10:11:43;102149.31;;;12.40;100.00
23261;BME280;11799;47.740;-3.390;2023-11-21T10:14:12;102163.09;;;12.45;100.00
23261;BME280;11799;47.740;-3.390;2023-11-21T10:16:40;102159.50;;;12.46;100.00
23261;BME280;11799;47.740;-3.390;2023-11-21T10:19:10;102162.06;;;12.48;100.00
23261;BME280;11799;47.740;-3.390;2023-11-21T10:21:37;102166.22;;;12.52;100.00
23261;BME280;11799;47.740;-3.390;2023-11-21T10:24:03;102173.97;;;12.55;100.00
23261;BME280;11799;47.740;-3.390;2023-11-21T10:26:29;102169.22;;;12.60;100.00
23261;BME280;11799;47.740;-3.390;2023-11-21T10:31:23;102177.63;;;12.67;100.00
23261;BME280;11799;47.740;-3.390;2023-11-21T10:33:52;102169.47;;;12.70;100.00
23261;BME280;11799;47.740;-3.390;2023-11-21T10:36:27;102171.47;;;12.66;100.00
23261;BME280;11799;47.740;-3.390;2023-11-21T10:38:53;102169.56;;;12.68;100.00
23261;BME280;11799;47.740;-3.390;2023-11-21T10:41:20;102171.38;;;12.68;100.00
23261;BME280;11799;47.740;-3.390;2023-11-21T10:43:46;102177.28;;;12.71;100.00
23261;BME280;11799;47.740;-3.390;2023-11-21T10:46:13;102177.41;;;12.70;100.00
23261;BME280;11799;47.740;-3.390;2023-11-21T10:48:41;102184.28;;;12.72;100.00
23261;BME280;11799;47.740;-3.390;2023-11-21T10:51:07;102183.34;;;12.73;100.00
23261;BME280;11799;47.740;-3.390;2023-11-21T10:53:41;102175.72;;;12.69;100.00
23261;BME280;11799;47.740;-3.390;2023-11-21T10:56:08;102183.56;;;12.70;100.00
23261;BME280;11799;47.740;-3.390;2023-11-21T10:58:43;102179.41;;;12.66;100.00
23261;BME280;11799;47.740;-3.390;2023-11-21T11:01:09;102192.47;;;12.69;100.00
23261;BME280;11799;47.740;-3.390;2023-11-21T11:03:37;102184.72;;;12.66;100.00
23261;BME280;11799;47.740;-3.390;2023-11-21T11:06:04;102186.94;;;12.72;100.00
23261;BME280;11799;47.740;-3.390;2023-11-21T11:08:32;102193.84;;;12.75;100.00
23261;BME280;11799;47.740;-3.390;2023-11-21T11:10:59;102189.41;;;12.75;100.00
23261;BME280;11799;47.740;-3.390;2023-11-21T11:13:24;102180.69;;;12.73;100.00
23261;BME280;11799;47.740;-3.390;2023-11-21T11:15:51;102184.19;;;12.74;100.00
23261;BME280;11799;47.740;-3.390;2023-11-21T11:18:22;102181.78;;;12.71;100.00
23261;BME280;11799;47.740;-3.390;2023-11-21T11:20:49;102166.47;;;12.62;100.00
23261;BME280;11799;47.740;-3.390;2023-11-21T11:29:25;102175.16;;;12.64;100.00
23261;BME280;11799;47.740;-3.390;2023-11-21T11:32:06;102178.78;;;12.63;100.00
23261;BME280;11799;47.740;-3.390;2023-11-21T11:34:37;102181.41;;;12.63;100.00
23261;BME280;11799;47.740;-3.390;2023-11-21T11:37:07;102178.03;;;12.61;100.00
23261;BME280;11799;47.740;-3.390;2023-11-21T11:39:38;102184.38;;;12.58;100.00
23261;BME280;11799;47.740;-3.390;2023-11-21T11:42:08;102180.31;;;12.52;100.00
23261;BME280;11799;47.740;-3.390;2023-11-21T11:47:24;102182.00;;;12.53;100.00
23261;BME280;11799;47.740;-3.390;2023-11-21T11:52:45;102170.41;;;12.42;100.00
23261;BME280;11799;47.740;-3.390;2023-11-21T11:55:12;102190.50;;;12.59;100.00
23261;BME280;11799;47.740;-3.390;2023-11-21T11:57:40;102192.66;;;12.66;100.00
23261;BME280;11799;47.740;-3.390;2023-11-21T12:02:44;102175.63;;;12.83;100.00
23261;BME280;11799;47.740;-3.390;2023-11-21T12:05:17;102178.34;;;12.96;100.00
23261;BME280;11799;47.740;-3.390;2023-11-21T12:07:55;102174.44;;;13.01;100.00
23261;BME280;11799;47.740;-3.390;2023-11-21T12:10:29;102174.94;;;12.94;100.00
23261;BME280;11799;47.740;-3.390;2023-11-21T12:12:57;102190.41;;;12.87;100.00
23261;BME280;11799;47.740;-3.390;2023-11-21T12:15:24;102184.66;;;12.80;100.00
23261;BME280;11799;47.740;-3.390;2023-11-21T12:17:51;102188.53;;;12.75;100.00
23261;BME280;11799;47.740;-3.390;2023-11-21T12:20:24;102183.44;;;12.72;100.00
23261;BME280;11799;47.740;-3.390;2023-11-21T12:22:52;102183.56;;;12.70;100.00
23261;BME280;11799;47.740;-3.390;2023-11-21T12:25:24;102184.09;;;12.75;100.00
23261;BME280;11799;47.740;-3.390;2023-11-21T12:27:51;102186.94;;;12.72;100.00
23261;BME280;11799;47.740;-3.390;2023-11-21T12:30:19;102190.44;;;12.73;100.00
23261;BME280;11799;47.740;-3.390;2023-11-21T12:32:52;102190.69;;;12.70;100.00
23261;BME280;11799;47.740;-3.390;2023-11-21T12:35:20;102188.97;;;12.69;100.00
23261;BME280;11799;47.740;-3.390;2023-11-21T12:37:46;102188.31;;;12.65;100.00
23261;BME280;11799;47.740;-3.390;2023-11-21T12:40:13;102195.31;;;12.66;100.00
23261;BME280;11799;47.740;-3.390;2023-11-21T12:42:47;102187.78;;;12.73;100.00
23261;BME280;11799;47.740;-3.390;2023-11-21T12:47:50;102194.84;;;12.86;100.00